createdAt,value
2019-05-06T00:00:06.818Z,10.90
2019-05-06T00:01:06.819Z,10.80
2019-05-06T00:02:06.828Z,12.60
2019-05-06T00:03:06.806Z,10.60
2019-05-06T00:04:06.786Z,12.10
2019-05-06T00:05:06.767Z,15.90
2019-05-06T00:06:06.766Z,13.10
2019-05-06T00:07:06.765Z,9.70
2019-05-06T00:08:06.729Z,15.20
2019-05-06T00:09:06.720Z,12.90
2019-05-06T00:10:06.707Z,14.30
2019-05-06T00:11:06.694Z,14.00
2019-05-06T00:12:06.726Z,14.00
2019-05-06T00:13:06.679Z,14.50
2019-05-06T00:14:06.681Z,10.00
2019-05-06T00:15:06.647Z,12.20
2019-05-06T00:16:06.646Z,13.60
2019-05-06T00:17:06.669Z,13.40
2019-05-06T00:18:06.632Z,14.40
2019-05-06T00:19:06.628Z,12.70
2019-05-06T00:20:06.605Z,15.20
2019-05-06T00:21:06.597Z,13.30
2019-05-06T00:22:06.587Z,14.30
2019-05-06T00:23:06.596Z,15.00
2019-05-06T00:24:06.567Z,14.40
2019-05-06T00:25:06.556Z,12.80
2019-05-06T00:26:06.566Z,12.30
2019-05-06T00:27:06.525Z,13.30
2019-05-06T00:28:06.525Z,12.50
2019-05-06T00:29:06.503Z,12.90
2019-05-06T00:30:06.516Z,12.60
2019-05-06T00:31:12.637Z,13.10
2019-05-06T00:32:07.476Z,12.60
2019-05-06T00:33:06.454Z,17.50
2019-05-06T00:34:06.454Z,14.70
2019-05-06T00:35:06.447Z,11.90
2019-05-06T00:36:06.436Z,15.70
2019-05-06T00:37:06.434Z,12.70
2019-05-06T00:38:06.394Z,13.10
2019-05-06T00:39:06.404Z,16.70
2019-05-06T00:40:06.384Z,16.10
2019-05-06T00:41:06.363Z,13.60
2019-05-06T00:42:06.391Z,11.70
2019-05-06T00:43:06.345Z,15.30
2019-05-06T00:44:06.345Z,16.30
2019-05-06T00:45:06.322Z,11.20
2019-05-06T00:46:06.338Z,14.50
2019-05-06T00:47:06.311Z,13.40
2019-05-06T00:48:06.312Z,12.20
2019-05-06T00:49:06.293Z,12.00
2019-05-06T00:50:06.277Z,12.10
2019-05-06T00:51:06.273Z,16.60
2019-05-06T00:52:06.252Z,12.00
2019-05-06T00:53:06.262Z,11.10
2019-05-06T00:54:06.236Z,9.90
2019-05-06T00:55:06.213Z,11.60
2019-05-06T00:56:06.209Z,14.80
2019-05-06T00:57:06.209Z,12.50
2019-05-06T00:58:06.201Z,14.10
2019-05-06T00:59:06.183Z,15.70
2019-05-06T01:00:06.159Z,17.60
2019-05-06T01:01:06.169Z,13.40
2019-05-06T01:02:06.153Z,15.90
2019-05-06T01:03:06.161Z,13.30
2019-05-06T01:04:06.135Z,13.70
2019-05-06T01:05:06.110Z,14.80
2019-05-06T01:06:06.098Z,14.90
2019-05-06T01:07:06.088Z,14.90
2019-05-06T01:08:06.096Z,16.80
2019-05-06T01:09:06.072Z,16.80
2019-05-06T01:10:06.076Z,14.70
2019-05-06T01:11:06.051Z,15.90
2019-05-06T01:12:06.054Z,13.20
2019-05-06T01:13:06.037Z,14.90
2019-05-06T01:14:06.021Z,14.70
2019-05-06T01:15:06.008Z,16.10
2019-05-06T01:16:05.998Z,15.50
2019-05-06T01:17:05.999Z,16.90
2019-05-06T01:18:05.979Z,13.40
2019-05-06T01:19:05.959Z,17.80
2019-05-06T01:20:05.959Z,15.20
2019-05-06T01:21:05.943Z,15.20
2019-05-06T01:22:05.944Z,12.80
2019-05-06T01:23:05.914Z,14.70
2019-05-06T01:24:05.921Z,15.60
2019-05-06T01:25:05.897Z,12.50
2019-05-06T01:26:05.883Z,17.70
2019-05-06T01:27:05.864Z,21.90
2019-05-06T01:28:05.858Z,18.10
2019-05-06T01:29:05.878Z,14.60
2019-05-06T01:30:05.838Z,14.50
2019-05-06T01:31:05.837Z,18.30
2019-05-06T01:32:05.818Z,19.00
2019-05-06T01:33:05.826Z,19.90
2019-05-06T01:34:05.817Z,19.60
2019-05-06T01:35:05.788Z,18.50
2019-05-06T01:36:05.778Z,12.80
2019-05-06T01:37:05.788Z,16.00
2019-05-06T01:38:05.758Z,16.70
2019-05-06T01:39:05.741Z,15.70
2019-05-06T01:40:05.743Z,16.70
2019-05-06T01:41:05.717Z,17.30
2019-05-06T01:42:05.724Z,15.40
2019-05-06T01:43:05.694Z,12.70
2019-05-06T01:44:05.691Z,15.50
2019-05-06T01:45:05.664Z,14.60
2019-05-06T01:46:05.690Z,15.70
2019-05-06T01:47:05.656Z,14.10
2019-05-06T01:48:05.645Z,12.50
2019-05-06T01:49:05.634Z,13.00
2019-05-06T01:50:05.633Z,14.00
2019-05-06T01:51:05.632Z,14.10
2019-05-06T01:52:05.610Z,13.30
2019-05-06T01:53:05.583Z,17.50
2019-05-06T01:54:05.578Z,15.10
2019-05-06T01:55:05.560Z,13.60
2019-05-06T01:56:05.613Z,16.30
2019-05-06T01:57:05.563Z,18.90
2019-05-06T01:58:05.534Z,13.40
2019-05-06T01:59:05.522Z,13.40
2019-05-06T02:00:05.513Z,15.50
2019-05-06T02:01:05.512Z,21.10
2019-05-06T02:02:05.499Z,15.30
2019-05-06T02:03:05.482Z,15.70
2019-05-06T02:04:05.463Z,17.10
2019-05-06T02:05:05.459Z,15.40
2019-05-06T02:06:05.441Z,15.00
2019-05-06T02:07:05.472Z,13.30
2019-05-06T02:08:05.419Z,15.70
2019-05-06T02:09:05.418Z,12.30
2019-05-06T02:10:05.400Z,18.40
2019-05-06T02:11:05.393Z,15.10
2019-05-06T02:12:05.381Z,14.70
2019-05-06T02:13:05.400Z,17.40
2019-05-06T02:14:05.360Z,17.40
2019-05-06T02:15:05.360Z,21.80
2019-05-06T02:16:05.329Z,18.50
2019-05-06T02:17:05.360Z,15.80
2019-05-06T02:18:05.322Z,16.40
2019-05-06T02:19:05.318Z,18.60
2019-05-06T02:20:05.287Z,15.50
2019-05-06T02:21:05.575Z,19.10
2019-05-06T02:22:05.287Z,18.10
2019-05-06T02:23:05.279Z,14.80
2019-05-06T02:24:05.267Z,17.80
2019-05-06T02:25:05.237Z,14.00
2019-05-06T02:26:05.228Z,17.30
2019-05-06T02:27:05.220Z,19.20
2019-05-06T02:28:05.204Z,20.00
2019-05-06T02:29:05.219Z,14.90
2019-05-06T02:30:05.689Z,18.80
2019-05-06T02:31:05.428Z,18.60
2019-05-06T02:32:17.307Z,16.60
2019-05-06T02:33:06.152Z,18.00
2019-05-06T02:34:05.357Z,18.10
2019-05-06T02:35:05.454Z,22.10
2019-05-06T02:36:06.540Z,19.70
2019-05-06T02:37:06.350Z,21.70
2019-05-06T02:38:05.218Z,16.90
2019-05-06T02:39:05.088Z,22.30
2019-05-06T02:40:05.069Z,21.20
2019-05-06T02:41:05.070Z,16.40
2019-05-06T02:42:05.078Z,19.50
2019-05-06T02:43:05.045Z,16.10
2019-05-06T02:44:05.038Z,18.00
2019-05-06T02:45:05.038Z,17.30
2019-05-06T02:46:05.015Z,15.50
2019-05-06T02:47:05.014Z,20.20
2019-05-06T02:48:04.983Z,18.10
2019-05-06T02:49:04.978Z,16.10
2019-05-06T02:50:04.997Z,17.40
2019-05-06T02:51:04.973Z,19.80
2019-05-06T02:52:04.957Z,15.80
2019-05-06T02:53:04.934Z,15.50
2019-05-06T02:54:04.927Z,14.40
2019-05-06T02:55:06.388Z,23.60
2019-05-06T02:56:05.405Z,18.00
2019-05-06T02:57:04.913Z,17.70
2019-05-06T02:58:04.874Z,16.20
2019-05-06T02:59:04.871Z,15.00
2019-05-06T03:00:05.381Z,18.20
2019-05-06T03:01:04.857Z,14.70
2019-05-06T03:02:04.851Z,16.30
2019-05-06T03:03:04.822Z,16.30
2019-05-06T03:04:04.935Z,15.20
2019-05-06T03:05:04.813Z,14.20
2019-05-06T03:06:04.835Z,16.20
2019-05-06T03:07:04.785Z,17.10
2019-05-06T03:08:04.767Z,14.00
2019-05-06T03:09:04.763Z,17.60
2019-05-06T03:10:04.741Z,16.20
2019-05-06T03:11:04.777Z,16.00
2019-05-06T03:12:04.738Z,15.40
2019-05-06T03:13:04.735Z,17.90
2019-05-06T03:14:04.734Z,15.70
2019-05-06T03:15:04.711Z,14.40
2019-05-06T03:16:05.857Z,16.70
2019-05-06T03:17:04.689Z,16.90
2019-05-06T03:18:04.674Z,17.30
2019-05-06T03:19:04.652Z,20.10
2019-05-06T03:20:05.776Z,18.00
2019-05-06T03:21:04.636Z,16.10
2019-05-06T03:22:04.618Z,19.30
2019-05-06T03:23:04.689Z,14.80
2019-05-06T03:24:07.506Z,19.90
2019-05-06T03:25:06.968Z,18.40
2019-05-06T03:26:06.489Z,18.00
2019-05-06T03:27:04.992Z,18.60
2019-05-06T03:28:04.582Z,16.50
2019-05-06T03:29:04.559Z,19.10
2019-05-06T03:30:04.671Z,17.90
2019-05-06T03:31:06.629Z,19.40
2019-05-06T03:32:06.911Z,18.70
2019-05-06T03:34:28.909Z,18.90
2019-05-06T03:35:25.764Z,17.50
2019-05-06T03:36:14.925Z,21.10
2019-05-06T03:37:07.848Z,16.50
2019-05-06T03:38:04.479Z,17.30
2019-05-06T03:39:04.447Z,24.10
2019-05-06T03:40:04.429Z,20.10
2019-05-06T03:41:04.422Z,19.20
2019-05-06T03:42:04.927Z,18.50
2019-05-06T03:43:04.570Z,19.20
2019-05-06T03:44:04.389Z,21.20
2019-05-06T03:45:04.573Z,24.30
2019-05-06T03:46:04.706Z,19.20
2019-05-06T03:47:05.719Z,20.30
2019-05-06T03:48:05.952Z,23.70
2019-05-06T03:49:04.618Z,25.70
2019-05-06T03:50:05.507Z,22.10
2019-05-06T03:51:04.433Z,22.20
2019-05-06T03:52:04.335Z,21.70
2019-05-06T03:53:04.965Z,24.40
2019-05-06T03:54:04.319Z,19.00
2019-05-06T03:55:04.406Z,22.50
2019-05-06T03:56:04.259Z,25.00
2019-05-06T03:57:04.317Z,20.80
2019-05-06T03:58:04.280Z,21.60
2019-05-06T03:59:04.237Z,23.00
2019-05-06T04:00:05.061Z,22.80
2019-05-06T04:01:04.209Z,21.40
2019-05-06T04:02:05.160Z,19.50
2019-05-06T04:03:04.171Z,21.10
2019-05-06T04:04:04.189Z,25.50
2019-05-06T04:05:04.397Z,20.80
2019-05-06T04:06:04.667Z,22.80
2019-05-06T04:07:04.147Z,21.30
2019-05-06T04:08:04.209Z,23.20
2019-05-06T04:09:04.110Z,19.80
2019-05-06T04:10:04.204Z,24.40
2019-05-06T04:11:04.113Z,22.40
2019-05-06T04:12:04.101Z,23.00
2019-05-06T04:13:04.380Z,21.80
2019-05-06T04:14:04.067Z,20.60
2019-05-06T04:15:04.445Z,24.20
2019-05-06T04:16:04.137Z,25.60
2019-05-06T04:17:04.040Z,20.50
2019-05-06T04:18:04.182Z,19.20
2019-05-06T04:19:04.358Z,22.90
2019-05-06T04:20:04.806Z,25.00
2019-05-06T04:21:08.547Z,22.00
2019-05-06T04:22:04.010Z,21.10
2019-05-06T04:23:06.455Z,24.10
2019-05-06T04:24:04.399Z,20.20
2019-05-06T04:25:04.341Z,20.80
2019-05-06T04:26:04.653Z,21.10
2019-05-06T04:27:04.150Z,23.60
2019-05-06T04:28:04.239Z,21.70
2019-05-06T04:29:04.201Z,25.20
2019-05-06T04:30:04.961Z,17.30
2019-05-06T04:31:04.089Z,23.50
2019-05-06T04:32:03.951Z,22.20
2019-05-06T04:33:04.107Z,22.70
2019-05-06T04:34:12.938Z,19.40
2019-05-06T04:35:05.042Z,22.40
2019-05-06T04:36:03.997Z,22.10
2019-05-06T04:37:03.841Z,18.20
2019-05-06T04:38:04.931Z,21.00
2019-05-06T04:39:04.396Z,26.90
2019-05-06T04:40:04.467Z,21.80
2019-05-06T04:41:04.283Z,19.70
2019-05-06T04:42:03.763Z,23.00
2019-05-06T04:43:03.865Z,21.80
2019-05-06T04:44:07.273Z,21.20
2019-05-06T04:45:04.550Z,19.00
2019-05-06T04:46:03.941Z,19.70
2019-05-06T04:47:05.435Z,21.20
2019-05-06T04:48:04.061Z,21.80
2019-05-06T04:49:04.170Z,22.30
2019-05-06T04:50:04.811Z,21.90
2019-05-06T04:51:03.714Z,21.70
2019-05-06T04:52:03.830Z,18.70
2019-05-06T04:53:05.211Z,18.20
2019-05-06T04:54:04.180Z,20.00
2019-05-06T04:55:03.933Z,18.70
2019-05-06T04:56:04.229Z,22.40
2019-05-06T04:57:05.047Z,20.50
2019-05-06T04:58:04.160Z,23.20
2019-05-06T04:59:06.250Z,18.60
2019-05-06T05:00:04.407Z,19.20
2019-05-06T05:01:04.298Z,20.40
2019-05-06T05:02:03.904Z,20.10
2019-05-06T05:03:03.535Z,19.10
2019-05-06T05:04:03.787Z,20.40
2019-05-06T05:05:04.312Z,18.90
2019-05-06T05:06:05.845Z,19.80
2019-05-06T05:07:03.579Z,22.40
2019-05-06T05:08:03.516Z,18.30
2019-05-06T05:09:03.524Z,18.00
2019-05-06T05:10:03.685Z,23.40
2019-05-06T05:11:03.722Z,19.70
2019-05-06T05:12:03.423Z,21.40
2019-05-06T05:13:03.683Z,21.60
2019-05-06T05:14:03.462Z,22.80
2019-05-06T05:15:03.422Z,19.30
2019-05-06T05:16:03.392Z,19.70
2019-05-06T05:17:03.431Z,20.20
2019-05-06T05:18:03.371Z,19.00
2019-05-06T05:19:03.393Z,17.90
2019-05-06T05:20:03.342Z,20.10
2019-05-06T05:21:03.349Z,22.60
2019-05-06T05:22:03.321Z,17.10
2019-05-06T05:23:03.353Z,23.40
2019-05-06T05:24:03.331Z,18.50
2019-05-06T05:25:03.585Z,18.70
2019-05-06T05:26:03.299Z,18.60
2019-05-06T05:27:03.300Z,21.00
2019-05-06T05:28:03.263Z,20.60
2019-05-06T05:29:03.267Z,19.60
2019-05-06T05:30:03.231Z,21.20
2019-05-06T05:31:03.271Z,19.70
2019-05-06T05:32:03.218Z,18.70
2019-05-06T05:33:03.230Z,20.00
2019-05-06T05:34:03.189Z,18.70
2019-05-06T05:35:03.237Z,17.20
2019-05-06T05:36:03.174Z,18.60
2019-05-06T05:37:03.204Z,21.90
2019-05-06T05:38:03.197Z,17.80
2019-05-06T05:39:03.475Z,19.10
2019-05-06T05:40:03.270Z,20.00
2019-05-06T05:41:03.221Z,17.00
2019-05-06T05:42:03.120Z,19.60
2019-05-06T05:43:03.093Z,18.10
2019-05-06T05:44:03.092Z,16.20
2019-05-06T05:45:03.081Z,21.70
2019-05-06T05:46:03.103Z,17.90
2019-05-06T05:47:03.544Z,18.60
2019-05-06T05:48:03.055Z,20.50
2019-05-06T05:49:03.044Z,17.60
2019-05-06T05:50:03.253Z,13.90
2019-05-06T05:51:03.401Z,19.40
2019-05-06T05:52:03.540Z,18.60
2019-05-06T05:53:03.031Z,19.80
2019-05-06T05:54:02.981Z,18.30
2019-05-06T05:55:03.003Z,18.20
2019-05-06T05:56:02.972Z,22.10
2019-05-06T05:57:02.976Z,17.10
2019-05-06T05:58:03.305Z,21.00
2019-05-06T05:59:03.443Z,19.50
2019-05-06T06:00:03.965Z,22.80
2019-05-06T06:01:04.126Z,16.60
2019-05-06T06:02:03.856Z,19.10
2019-05-06T06:03:03.021Z,17.60
2019-05-06T06:04:03.204Z,15.40
2019-05-06T06:05:02.869Z,17.10
2019-05-06T06:06:03.223Z,14.10
2019-05-06T06:07:03.008Z,17.50
2019-05-06T06:08:03.808Z,13.50
2019-05-06T06:09:03.244Z,15.80
2019-05-06T06:10:02.832Z,12.50
2019-05-06T06:11:04.289Z,16.10
2019-05-06T06:12:02.880Z,15.00
2019-05-06T06:13:02.959Z,13.00
2019-05-06T06:14:03.096Z,18.30
2019-05-06T06:15:02.755Z,18.60
2019-05-06T06:16:02.916Z,14.60
2019-05-06T06:17:02.727Z,15.80
2019-05-06T06:18:03.077Z,15.50
2019-05-06T06:19:03.241Z,15.30
2019-05-06T06:20:02.775Z,15.80
2019-05-06T06:21:16.978Z,16.20
2019-05-06T06:22:03.697Z,16.30
2019-05-06T06:23:02.965Z,17.70
2019-05-06T06:24:02.853Z,17.70
2019-05-06T06:25:04.227Z,15.50
2019-05-06T06:26:04.047Z,18.90
2019-05-06T06:27:03.044Z,19.20
2019-05-06T06:28:02.785Z,20.50
2019-05-06T06:29:03.277Z,16.60
2019-05-06T06:30:02.643Z,15.90
2019-05-06T06:31:03.058Z,14.60
2019-05-06T06:32:03.119Z,22.60
2019-05-06T06:33:02.704Z,16.60
2019-05-06T06:34:02.543Z,17.60
2019-05-06T06:35:10.596Z,16.20
2019-05-06T06:36:03.523Z,14.40
2019-05-06T06:37:02.660Z,16.80
2019-05-06T06:38:02.797Z,16.10
2019-05-06T06:39:02.501Z,20.00
2019-05-06T06:40:02.780Z,14.80
2019-05-06T06:41:02.846Z,15.10
2019-05-06T06:42:02.831Z,16.10
2019-05-06T06:43:02.446Z,16.20
2019-05-06T06:44:02.454Z,14.50
2019-05-06T06:45:03.480Z,13.60
2019-05-06T06:46:02.578Z,16.40
2019-05-06T06:47:02.411Z,16.90
2019-05-06T06:48:03.108Z,17.70
2019-05-06T06:49:03.250Z,13.60
2019-05-06T06:50:02.800Z,14.50
2019-05-06T06:51:03.472Z,11.80
2019-05-06T06:52:02.962Z,14.30
2019-05-06T06:53:03.058Z,18.00
2019-05-06T06:54:02.625Z,18.50
2019-05-06T06:55:02.622Z,15.20
2019-05-06T06:56:02.345Z,13.80
2019-05-06T06:57:08.727Z,18.20
2019-05-06T06:58:03.278Z,17.00
2019-05-06T06:59:02.656Z,14.20
2019-05-06T07:00:04.103Z,18.10
2019-05-06T07:01:03.104Z,17.50
2019-05-06T07:02:02.744Z,16.60
2019-05-06T07:03:02.702Z,13.30
2019-05-06T07:04:08.219Z,14.70
2019-05-06T07:05:03.210Z,14.40
2019-05-06T07:06:02.412Z,12.60
2019-05-06T07:07:02.999Z,15.70
2019-05-06T07:08:02.337Z,17.10
2019-05-06T07:09:02.737Z,16.40
2019-05-06T07:10:02.632Z,14.80
2019-05-06T07:11:02.263Z,16.10
2019-05-06T07:12:03.505Z,14.70
2019-05-06T07:13:02.951Z,15.50
2019-05-06T07:14:02.660Z,15.40
2019-05-06T07:15:02.541Z,15.20
2019-05-06T07:16:02.901Z,12.80
2019-05-06T07:17:02.487Z,16.00
2019-05-06T07:18:02.491Z,13.30
2019-05-06T07:19:03.130Z,15.90
2019-05-06T07:20:02.882Z,14.30
2019-05-06T07:21:05.100Z,18.10
2019-05-06T07:22:02.892Z,13.50
2019-05-06T07:23:02.075Z,12.90
2019-05-06T07:24:02.239Z,12.30
2019-05-06T07:25:03.739Z,14.40
2019-05-06T07:26:03.082Z,11.30
2019-05-06T07:27:03.008Z,16.50
2019-05-06T07:28:02.954Z,13.10
2019-05-06T07:29:03.950Z,12.10
2019-05-06T07:30:03.207Z,12.00
2019-05-06T07:31:17.366Z,12.60
2019-05-06T07:32:02.906Z,15.30
2019-05-06T07:33:03.701Z,11.30
2019-05-06T07:34:02.581Z,11.20
2019-05-06T07:35:02.381Z,12.60
2019-05-06T07:36:02.268Z,14.80
2019-05-06T07:37:03.425Z,14.60
2019-05-06T07:38:02.387Z,11.10
2019-05-06T07:39:04.120Z,12.80
2019-05-06T07:40:03.074Z,14.20
2019-05-06T07:41:04.681Z,13.30
2019-05-06T07:42:02.513Z,10.30
2019-05-06T07:43:02.219Z,9.70
2019-05-06T07:44:02.194Z,12.50
2019-05-06T07:45:06.452Z,11.30
2019-05-06T07:46:02.769Z,10.60
2019-05-06T07:47:03.552Z,11.80
2019-05-06T07:48:03.543Z,11.50
2019-05-06T07:49:03.259Z,13.00
2019-05-06T07:50:02.465Z,11.30
2019-05-06T07:51:03.045Z,10.90
2019-05-06T07:52:02.884Z,7.80
2019-05-06T07:53:02.368Z,11.80
2019-05-06T07:54:02.787Z,11.10
2019-05-06T07:55:02.614Z,12.00
2019-05-06T07:56:03.639Z,10.70
2019-05-06T07:57:02.413Z,8.40
2019-05-06T07:58:02.933Z,9.70
2019-05-06T07:59:03.224Z,8.00
2019-05-06T08:00:03.421Z,8.70
2019-05-06T08:01:02.739Z,9.10
2019-05-06T08:02:02.248Z,11.00
2019-05-06T08:03:02.506Z,9.00
2019-05-06T08:04:02.552Z,9.70
2019-05-06T08:05:02.667Z,11.10
2019-05-06T08:06:02.673Z,13.20
2019-05-06T08:07:03.196Z,11.20
2019-05-06T08:08:03.689Z,9.30
2019-05-06T08:09:03.175Z,9.90
2019-05-06T08:10:02.141Z,11.90
2019-05-06T08:11:02.657Z,9.70
2019-05-06T08:12:02.809Z,10.90
2019-05-06T08:13:02.686Z,9.20
2019-05-06T08:14:02.205Z,10.40
2019-05-06T08:15:05.005Z,11.50
2019-05-06T08:16:02.245Z,10.30
2019-05-06T08:17:02.266Z,10.60
2019-05-06T08:18:03.320Z,13.40
2019-05-06T08:19:02.744Z,9.60
2019-05-06T08:20:02.514Z,9.80
2019-05-06T08:21:02.421Z,9.80
2019-05-06T08:22:02.753Z,11.10
2019-05-06T08:23:02.120Z,9.10
2019-05-06T08:24:02.699Z,10.40
2019-05-06T08:25:03.396Z,9.60
2019-05-06T08:26:10.038Z,11.90
2019-05-06T08:27:02.892Z,14.70
2019-05-06T08:28:02.295Z,9.70
2019-05-06T08:29:02.816Z,10.70
2019-05-06T08:30:02.445Z,13.30
2019-05-06T08:31:02.419Z,11.00
2019-05-06T08:32:02.905Z,13.60
2019-05-06T08:33:02.249Z,10.10
2019-05-06T08:34:02.690Z,10.30
2019-05-06T08:35:03.297Z,10.50
2019-05-06T08:36:08.938Z,10.20
2019-05-06T08:37:02.488Z,10.50
2019-05-06T08:38:02.358Z,9.50
2019-05-06T08:39:02.730Z,11.00
2019-05-06T08:40:03.170Z,8.20
2019-05-06T08:41:02.733Z,9.60
2019-05-06T08:42:02.678Z,9.80
2019-05-06T08:43:02.219Z,6.70
2019-05-06T08:44:02.584Z,11.50
2019-05-06T08:45:02.231Z,10.20
2019-05-06T08:46:03.158Z,10.10
2019-05-06T08:47:02.483Z,8.50
2019-05-06T08:48:02.948Z,7.80
2019-05-06T08:49:03.124Z,9.10
2019-05-06T08:50:02.430Z,9.80
2019-05-06T08:51:02.702Z,11.90
2019-05-06T08:52:02.424Z,9.30
2019-05-06T08:53:04.835Z,9.10
2019-05-06T08:54:03.089Z,8.10
2019-05-06T08:55:04.320Z,11.20
2019-05-06T08:56:01.945Z,10.00
2019-05-06T08:57:02.596Z,7.70
2019-05-06T08:58:02.995Z,12.30
2019-05-06T08:59:03.019Z,9.10
2019-05-06T09:00:02.904Z,9.20
2019-05-06T09:01:02.821Z,7.00
2019-05-06T09:02:03.056Z,6.60
2019-05-06T09:03:04.027Z,11.10
2019-05-06T09:04:11.445Z,10.40
2019-05-06T09:05:02.952Z,8.80
2019-05-06T09:06:03.029Z,8.20
2019-05-06T09:07:02.745Z,12.80
2019-05-06T09:08:03.237Z,9.70
2019-05-06T09:09:02.375Z,8.60
2019-05-06T09:10:02.535Z,9.00
2019-05-06T09:11:02.949Z,10.10
2019-05-06T09:12:02.679Z,11.00
2019-05-06T09:13:02.014Z,8.20
2019-05-06T09:14:03.140Z,9.90
2019-05-06T09:15:03.257Z,11.70
2019-05-06T09:16:02.460Z,8.90
2019-05-06T09:17:02.619Z,9.10
2019-05-06T09:18:02.814Z,10.00
2019-05-06T09:19:04.310Z,9.40
2019-05-06T09:20:02.626Z,8.60
2019-05-06T09:21:02.836Z,10.40
2019-05-06T09:22:02.479Z,11.90
2019-05-06T09:23:04.213Z,12.10
2019-05-06T09:24:02.232Z,10.80
2019-05-06T09:25:02.448Z,9.10
2019-05-06T09:26:02.657Z,11.10
2019-05-06T09:27:02.824Z,5.70
2019-05-06T09:28:02.532Z,7.50
2019-05-06T09:29:02.299Z,5.90
2019-05-06T09:30:02.848Z,9.70
2019-05-06T09:31:02.233Z,7.80
2019-05-06T09:32:01.818Z,6.40
2019-05-06T09:33:02.511Z,8.70
2019-05-06T09:34:02.795Z,8.20
2019-05-06T09:35:02.742Z,7.30
2019-05-06T09:36:02.808Z,8.20
2019-05-06T09:37:03.373Z,7.90
2019-05-06T09:38:02.191Z,7.20
2019-05-06T09:39:02.288Z,5.30
2019-05-06T09:40:02.774Z,6.10
2019-05-06T09:41:00.507Z,8.30
2019-05-06T09:42:02.263Z,6.90
2019-05-06T09:43:04.446Z,8.20
2019-05-06T09:44:02.929Z,6.30
2019-05-06T09:45:02.250Z,8.60
2019-05-06T09:46:02.391Z,6.80
2019-05-06T09:47:02.387Z,6.60
2019-05-06T09:48:00.455Z,7.30
2019-05-06T09:49:00.405Z,10.20
2019-05-06T09:50:02.799Z,5.80
2019-05-06T09:51:02.754Z,6.20
2019-05-06T09:52:02.476Z,7.60
2019-05-06T09:53:02.490Z,7.70
2019-05-06T09:54:03.784Z,8.40
2019-05-06T09:55:03.184Z,6.30
2019-05-06T09:56:00.364Z,5.60
2019-05-06T09:57:02.256Z,7.40
2019-05-06T09:58:03.157Z,5.10
2019-05-06T09:59:02.201Z,5.50
2019-05-06T10:00:04.395Z,6.70
2019-05-06T10:01:02.517Z,8.60
2019-05-06T10:02:00.277Z,7.90
2019-05-06T10:03:09.583Z,8.60
2019-05-06T10:04:03.294Z,7.90
2019-05-06T10:05:03.325Z,6.20
2019-05-06T10:06:02.525Z,6.00
2019-05-06T10:07:02.502Z,6.10
2019-05-06T10:08:00.209Z,7.70
2019-05-06T10:09:04.229Z,8.90
2019-05-06T10:10:00.212Z,7.40
2019-05-06T10:11:00.202Z,6.10
2019-05-06T10:12:02.055Z,5.20
2019-05-06T10:13:02.551Z,8.50
2019-05-06T10:14:00.142Z,5.30
2019-05-06T10:15:02.936Z,5.60
2019-05-06T10:16:02.735Z,9.20
2019-05-06T10:17:04.175Z,8.80
2019-05-06T10:18:00.096Z,6.60
2019-05-06T10:19:02.443Z,7.40
2019-05-06T10:20:02.599Z,9.40
2019-05-06T10:21:00.056Z,7.80
2019-05-06T10:22:00.063Z,7.90
2019-05-06T10:23:00.052Z,8.90
2019-05-06T10:24:02.208Z,7.30
2019-05-06T10:25:00.044Z,7.50
2019-05-06T10:26:00.018Z,6.10
2019-05-06T10:27:00.007Z,6.30
2019-05-06T10:28:02.606Z,5.40
2019-05-06T10:28:59.978Z,6.70
2019-05-06T10:29:59.969Z,6.20
2019-05-06T10:31:02.031Z,8.20
2019-05-06T10:31:59.959Z,5.40
2019-05-06T10:33:01.993Z,7.00
2019-05-06T10:33:59.957Z,6.40
2019-05-06T10:34:59.910Z,6.60
2019-05-06T10:36:02.461Z,6.70
2019-05-06T10:37:11.484Z,8.20
2019-05-06T10:38:02.832Z,8.50
2019-05-06T10:39:02.109Z,7.50
2019-05-06T10:39:59.869Z,7.30
2019-05-06T10:41:05.108Z,7.50
2019-05-06T10:42:00.841Z,6.60
2019-05-06T10:42:59.829Z,6.60
2019-05-06T10:43:59.859Z,5.70
2019-05-06T10:45:01.684Z,7.90
2019-05-06T10:46:01.802Z,7.50
2019-05-06T10:46:59.779Z,8.50
2019-05-06T10:47:59.780Z,6.70
2019-05-06T10:49:02.415Z,8.50
2019-05-06T10:50:02.091Z,7.40
2019-05-06T10:50:59.757Z,7.70
2019-05-06T10:51:59.738Z,8.90
2019-05-06T10:52:59.717Z,6.40
2019-05-06T10:53:59.727Z,7.20
2019-05-06T10:54:59.698Z,6.80
2019-05-06T10:56:02.114Z,7.30
2019-05-06T10:57:02.112Z,6.30
2019-05-06T10:58:02.393Z,6.10
2019-05-06T10:58:59.661Z,7.20
2019-05-06T10:59:59.655Z,6.00
2019-05-06T11:00:59.648Z,8.10
2019-05-06T11:01:59.619Z,8.90
2019-05-06T11:02:59.609Z,7.70
2019-05-06T11:03:59.610Z,8.40
2019-05-06T11:05:02.533Z,8.20
2019-05-06T11:05:59.581Z,10.60
2019-05-06T11:06:59.567Z,8.60
2019-05-06T11:07:59.547Z,9.20
2019-05-06T11:08:59.554Z,8.00
2019-05-06T11:09:59.548Z,8.10
2019-05-06T11:11:14.091Z,8.90
2019-05-06T11:12:00.515Z,8.80
2019-05-06T11:12:59.501Z,7.90
2019-05-06T11:13:59.507Z,12.00
2019-05-06T11:14:59.488Z,8.20
2019-05-06T11:15:59.489Z,6.10
2019-05-06T11:16:59.457Z,7.50
2019-05-06T11:17:59.442Z,7.60
2019-05-06T11:18:59.449Z,6.90
2019-05-06T11:19:59.427Z,8.20
2019-05-06T11:20:59.432Z,8.70
2019-05-06T11:21:59.404Z,10.90
2019-05-06T11:22:59.391Z,6.60
2019-05-06T11:23:59.381Z,7.80
2019-05-06T11:24:59.370Z,7.30
2019-05-06T11:25:59.379Z,8.80
2019-05-06T11:26:59.370Z,7.20
2019-05-06T11:27:59.373Z,8.20
2019-05-06T11:28:59.341Z,7.00
2019-05-06T11:29:59.348Z,8.60
2019-05-06T11:30:59.313Z,8.40
2019-05-06T11:31:59.309Z,7.10
2019-05-06T11:32:59.294Z,8.10
2019-05-06T11:33:59.323Z,7.50
2019-05-06T11:34:59.255Z,6.80
2019-05-06T11:35:59.262Z,10.30
2019-05-06T11:36:59.251Z,8.10
2019-05-06T11:37:59.239Z,5.80
2019-05-06T11:38:59.251Z,8.50
2019-05-06T11:39:59.213Z,6.30
2019-05-06T11:40:59.193Z,8.40
2019-05-06T11:42:14.840Z,9.90
2019-05-06T11:43:00.202Z,7.90
2019-05-06T11:43:59.163Z,8.80
2019-05-06T11:44:59.158Z,8.60
2019-05-06T11:45:59.143Z,11.20
2019-05-06T11:46:59.130Z,10.60
2019-05-06T11:47:59.132Z,9.30
2019-05-06T11:48:59.137Z,8.20
2019-05-06T11:49:59.109Z,8.10
2019-05-06T11:50:59.112Z,10.80
2019-05-06T11:51:59.076Z,9.00
2019-05-06T11:52:59.064Z,11.20
2019-05-06T11:53:59.080Z,10.20
2019-05-06T11:54:59.065Z,11.40
2019-05-06T11:55:59.054Z,9.50
2019-05-06T11:56:59.025Z,13.40
2019-05-06T11:57:59.015Z,10.30
2019-05-06T11:58:59.006Z,11.60
2019-05-06T11:59:58.993Z,11.20
2019-05-06T12:00:58.992Z,11.20
2019-05-06T12:01:58.965Z,11.40
2019-05-06T12:02:58.956Z,13.00
2019-05-06T12:03:58.990Z,12.80
2019-05-06T12:04:58.942Z,12.00
2019-05-06T12:05:58.916Z,13.30
2019-05-06T12:07:10.128Z,11.60
2019-05-06T12:08:04.510Z,12.40
2019-05-06T12:08:59.920Z,13.70
2019-05-06T12:09:58.887Z,12.80
2019-05-06T12:10:58.865Z,14.10
2019-05-06T12:11:58.869Z,13.80
2019-05-06T12:12:58.869Z,14.00
2019-05-06T12:13:58.864Z,12.50
2019-05-06T12:14:58.843Z,13.50
2019-05-06T12:15:58.811Z,13.10
2019-05-06T12:16:58.804Z,16.00
2019-05-06T12:17:58.793Z,12.20
2019-05-06T12:18:59.899Z,15.20
2019-05-06T12:19:58.779Z,12.60
2019-05-06T12:21:09.016Z,13.40
2019-05-06T12:21:59.757Z,13.30
2019-05-06T12:22:58.754Z,16.40
2019-05-06T12:23:58.741Z,12.70
2019-05-06T12:24:58.730Z,14.60
2019-05-06T12:25:58.715Z,14.10
2019-05-06T12:26:58.705Z,13.40
2019-05-06T12:27:58.679Z,12.80
2019-05-06T12:28:58.701Z,13.50
2019-05-06T12:29:58.677Z,14.90
2019-05-06T12:30:58.670Z,15.50
2019-05-06T12:31:58.644Z,15.40
2019-05-06T12:32:58.638Z,14.70
2019-05-06T12:33:58.648Z,14.80
2019-05-06T12:34:58.637Z,13.80
2019-05-06T12:35:58.630Z,17.60
2019-05-06T12:36:58.615Z,15.00
2019-05-06T12:37:58.567Z,17.90
2019-05-06T12:38:58.560Z,14.20
2019-05-06T12:39:58.585Z,14.10
2019-05-06T12:41:00.059Z,14.90
2019-05-06T12:41:58.533Z,20.20
2019-05-06T12:42:58.519Z,16.70
2019-05-06T12:43:58.517Z,16.30
2019-05-06T12:44:58.501Z,16.30
2019-05-06T12:45:58.487Z,16.30
2019-05-06T12:47:00.062Z,17.40
2019-05-06T12:47:58.475Z,15.20
2019-05-06T12:48:58.464Z,17.30
2019-05-06T12:49:58.457Z,13.30
2019-05-06T12:50:58.474Z,13.80
2019-05-06T12:51:58.421Z,13.70
2019-05-06T12:52:58.412Z,17.20
2019-05-06T12:53:58.399Z,16.10
2019-05-06T12:55:16.406Z,15.90
2019-05-06T12:55:59.387Z,18.00
2019-05-06T12:56:58.366Z,16.20
2019-05-06T12:57:58.360Z,15.20
2019-05-06T12:58:58.341Z,16.80